sensor_id;sensor_type;location;lat;lon;timestamp;temperature;humidity
11991;DHT22;6055;52.522;13.446;2022-10-31T00:01:30;13.90;99.90
11991;DHT22;6055;52.522;13.446;2022-10-31T00:03:56;13.90;99.90
11991;DHT22;6055;52.522;13.446;2022-10-31T00:06:22;13.90;99.90
11991;DHT22;6055;52.522;13.446;2022-10-31T00:08:56;13.90;99.90
11991;DHT22;6055;52.522;13.446;2022-10-31T00:11:23;13.90;99.90
11991;DHT22;6055;52.522;13.446;2022-10-31T00:13:48;13.80;99.90
11991;DHT22;6055;52.522;13.446;2022-10-31T00:16:18;13.80;99.90
11991;DHT22;6055;52.522;13.446;2022-10-31T00:18:51;13.80;99.90
11991;DHT22;6055;52.522;13.446;2022-10-31T00:21:17;13.80;99.90
11991;DHT22;6055;52.522;13.446;2022-10-31T00:23:42;13.80;99.90
11991;DHT22;6055;52.522;13.446;2022-10-31T00:26:08;13.80;99.90
11991;DHT22;6055;52.522;13.446;2022-10-31T00:28:33;13.70;99.90
11991;DHT22;6055;52.522;13.446;2022-10-31T00:31:03;13.70;99.90
11991;DHT22;6055;52.522;13.446;2022-10-31T00:33:29;13.70;99.90
11991;DHT22;6055;52.522;13.446;2022-10-31T00:35:56;13.70;99.90
11991;DHT22;6055;52.522;13.446;2022-10-31T00:38:22;13.70;99.90
11991;DHT22;6055;52.522;13.446;2022-10-31T00:40:48;13.70;99.90
11991;DHT22;6055;52.522;13.446;2022-10-31T00:43:13;13.70;99.90
11991;DHT22;6055;52.522;13.446;2022-10-31T00:45:39;13.70;99.90
11991;DHT22;6055;52.522;13.446;2022-10-31T00:48:05;13.70;99.90
11991;DHT22;6055;52.522;13.446;2022-10-31T00:50:31;13.70;99.90
11991;DHT22;6055;52.522;13.446;2022-10-31T00:52:56;13.70;99.90
11991;DHT22;6055;52.522;13.446;2022-10-31T00:55:23;13.70;99.90
11991;DHT22;6055;52.522;13.446;2022-10-31T00:57:49;13.70;99.90
11991;DHT22;6055;52.522;13.446;2022-10-31T01:00:15;13.70;99.90
11991;DHT22;6055;52.522;13.446;2022-10-31T01:02:40;13.70;99.90
11991;DHT22;6055;52.522;13.446;2022-10-31T01:05:06;13.70;99.90
11991;DHT22;6055;52.522;13.446;2022-10-31T01:07:31;13.70;99.90
11991;DHT22;6055;52.522;13.446;2022-10-31T01:09:57;13.60;99.90
11991;DHT22;6055;52.522;13.446;2022-10-31T01:12:22;13.60;99.90
11991;DHT22;6055;52.522;13.446;2022-10-31T01:14:48;13.60;99.90
11991;DHT22;6055;52.522;13.446;2022-10-31T01:17:14;13.60;99.90
11991;DHT22;6055;52.522;13.446;2022-10-31T01:19:39;13.60;99.90
11991;DHT22;6055;52.522;13.446;2022-10-31T01:22:05;13.60;99.90
11991;DHT22;6055;52.522;13.446;2022-10-31T01:24:31;13.60;99.90
11991;DHT22;6055;52.522;13.446;2022-10-31T01:26:56;13.60;99.90
11991;DHT22;6055;52.522;13.446;2022-10-31T01:29:22;13.60;99.90
11991;DHT22;6055;52.522;13.446;2022-10-31T01:31:47;13.60;99.90
11991;DHT22;6055;52.522;13.446;2022-10-31T01:34:15;13.60;99.90
11991;DHT22;6055;52.522;13.446;2022-10-31T01:36:41;13.60;99.90
11991;DHT22;6055;52.522;13.446;2022-10-31T01:39:10;13.60;99.90
11991;DHT22;6055;52.522;13.446;2022-10-31T01:41:42;13.60;99.90
11991;DHT22;6055;52.522;13.446;2022-10-31T01:49:42;13.60;99.90
11991;DHT22;6055;52.522;13.446;2022-10-31T01:52:32;13.60;99.90
11991;DHT22;6055;52.522;13.446;2022-10-31T01:55:02;13.60;99.90
11991;DHT22;6055;52.522;13.446;2022-10-31T01:57:29;13.60;99.90
11991;DHT22;6055;52.522;13.446;2022-10-31T02:00:00;13.60;99.90
11991;DHT22;6055;52.522;13.446;2022-10-31T02:02:27;13.60;99.90
11991;DHT22;6055;52.522;13.446;2022-10-31T02:04:54;13.50;99.90
11991;DHT22;6055;52.522;13.446;2022-10-31T02:07:25;13.50;99.90
11991;DHT22;6055;52.522;13.446;2022-10-31T02:09:53;13.40;99.90
11991;DHT22;6055;52.522;13.446;2022-10-31T02:12:20;13.50;99.90
11991;DHT22;6055;52.522;13.446;2022-10-31T02:14:46;13.50;99.90
11991;DHT22;6055;52.522;13.446;2022-10-31T02:17:12;13.50;99.90
11991;DHT22;6055;52.522;13.446;2022-10-31T02:19:55;13.50;99.90
11991;DHT22;6055;52.522;13.446;2022-10-31T02:34:34;13.50;99.90
11991;DHT22;6055;52.522;13.446;2022-10-31T02:40:18;13.60;99.90
11991;DHT22;6055;52.522;13.446;2022-10-31T02:42:56;13.60;99.90
11991;DHT22;6055;52.522;13.446;2022-10-31T02:45:31;13.50;99.90
11991;DHT22;6055;52.522;13.446;2022-10-31T02:48:03;13.50;99.90
11991;DHT22;6055;52.522;13.446;2022-10-31T02:50:34;13.50;99.90
11991;DHT22;6055;52.522;13.446;2022-10-31T02:53:01;13.50;99.90
11991;DHT22;6055;52.522;13.446;2022-10-31T02:58:05;13.40;99.90
11991;DHT22;6055;52.522;13.446;2022-10-31T03:01:01;13.40;99.90
11991;DHT22;6055;52.522;13.446;2022-10-31T03:06:48;13.30;99.90
11991;DHT22;6055;52.522;13.446;2022-10-31T03:09:29;13.30;99.90
11991;DHT22;6055;52.522;13.446;2022-10-31T03:12:28;13.30;99.90
11991;DHT22;6055;52.522;13.446;2022-10-31T03:15:29;13.30;99.90
11991;DHT22;6055;52.522;13.446;2022-10-31T03:18:09;13.30;99.90
11991;DHT22;6055;52.522;13.446;2022-10-31T03:20:40;13.30;99.90
11991;DHT22;6055;52.522;13.446;2022-10-31T03:23:10;13.30;99.90
11991;DHT22;6055;52.522;13.446;2022-10-31T03:25:37;13.30;99.90
11991;DHT22;6055;52.522;13.446;2022-10-31T03:28:06;13.30;99.90
11991;DHT22;6055;52.522;13.446;2022-10-31T03:30:34;13.30;99.90
11991;DHT22;6055;52.522;13.446;2022-10-31T03:33:03;13.30;99.90
11991;DHT22;6055;52.522;13.446;2022-10-31T03:35:30;13.30;99.90
11991;DHT22;6055;52.522;13.446;2022-10-31T03:37:59;13.30;99.90
11991;DHT22;6055;52.522;13.446;2022-10-31T03:40:26;13.30;99.90
11991;DHT22;6055;52.522;13.446;2022-10-31T03:42:58;13.30;99.90
11991;DHT22;6055;52.522;13.446;2022-10-31T03:45:28;13.40;99.90
11991;DHT22;6055;52.522;13.446;2022-10-31T03:47:55;13.40;99.90
11991;DHT22;6055;52.522;13.446;2022-10-31T03:50:24;13.40;99.90
11991;DHT22;6055;52.522;13.446;2022-10-31T03:53:03;13.40;99.90
11991;DHT22;6055;52.522;13.446;2022-10-31T03:55:42;13.40;99.90
11991;DHT22;6055;52.522;13.446;2022-10-31T04:00:44;13.40;99.90
11991;DHT22;6055;52.522;13.446;2022-10-31T04:03:17;13.40;99.90
11991;DHT22;6055;52.522;13.446;2022-10-31T04:05:46;13.40;99.90
11991;DHT22;6055;52.522;13.446;2022-10-31T04:08:16;13.50;99.90
11991;DHT22;6055;52.522;13.446;2022-10-31T04:10:45;13.50;99.90
11991;DHT22;6055;52.522;13.446;2022-10-31T04:13:16;13.40;99.90
11991;DHT22;6055;52.522;13.446;2022-10-31T04:15:42;13.40;99.90
11991;DHT22;6055;52.522;13.446;2022-10-31T04:18:09;13.40;99.90
11991;DHT22;6055;52.522;13.446;2022-10-31T04:20:40;13.40;99.90
11991;DHT22;6055;52.522;13.446;2022-10-31T04:23:16;13.40;99.90
11991;DHT22;6055;52.522;13.446;2022-10-31T04:25:43;13.40;99.90
11991;DHT22;6055;52.522;13.446;2022-10-31T04:28:08;13.50;99.90
11991;DHT22;6055;52.522;13.446;2022-10-31T04:30:34;13.50;99.90
11991;DHT22;6055;52.522;13.446;2022-10-31T04:32:59;13.50;99.90
11991;DHT22;6055;52.522;13.446;2022-10-31T04:35:24;13.50;99.90
11991;DHT22;6055;52.522;13.446;2022-10-31T04:37:50;13.60;99.90
11991;DHT22;6055;52.522;13.446;2022-10-31T04:40:16;13.50;99.90
11991;DHT22;6055;52.522;13.446;2022-10-31T04:42:41;13.50;99.90
11991;DHT22;6055;52.522;13.446;2022-10-31T04:45:07;13.50;99.90
11991;DHT22;6055;52.522;13.446;2022-10-31T04:47:33;13.50;99.90
11991;DHT22;6055;52.522;13.446;2022-10-31T04:49:59;13.50;99.90
11991;DHT22;6055;52.522;13.446;2022-10-31T04:52:24;13.50;99.90
11991;DHT22;6055;52.522;13.446;2022-10-31T04:54:50;13.60;99.90
11991;DHT22;6055;52.522;13.446;2022-10-31T04:57:16;13.60;99.90
11991;DHT22;6055;52.522;13.446;2022-10-31T04:59:41;13.60;99.90
11991;DHT22;6055;52.522;13.446;2022-10-31T05:02:06;13.60;99.90
11991;DHT22;6055;52.522;13.446;2022-10-31T05:04:32;13.60;99.90
11991;DHT22;6055;52.522;13.446;2022-10-31T05:06:57;13.60;99.90
11991;DHT22;6055;52.522;13.446;2022-10-31T05:09:23;13.50;99.90
11991;DHT22;6055;52.522;13.446;2022-10-31T05:11:48;13.60;99.90
11991;DHT22;6055;52.522;13.446;2022-10-31T05:14:14;13.60;99.90
11991;DHT22;6055;52.522;13.446;2022-10-31T05:16:39;13.50;99.90
11991;DHT22;6055;52.522;13.446;2022-10-31T05:19:05;13.60;99.90
11991;DHT22;6055;52.522;13.446;2022-10-31T05:21:30;13.50;99.90
11991;DHT22;6055;52.522;13.446;2022-10-31T05:23:55;13.50;99.90
11991;DHT22;6055;52.522;13.446;2022-10-31T05:26:21;13.50;99.90
11991;DHT22;6055;52.522;13.446;2022-10-31T05:28:46;13.50;99.90
11991;DHT22;6055;52.522;13.446;2022-10-31T05:31:12;13.40;99.90
11991;DHT22;6055;52.522;13.446;2022-10-31T05:33:37;13.40;99.90
11991;DHT22;6055;52.522;13.446;2022-10-31T05:36:03;13.40;99.90
11991;DHT22;6055;52.522;13.446;2022-10-31T05:38:29;13.40;99.90
11991;DHT22;6055;52.522;13.446;2022-10-31T05:40:55;13.40;99.90
11991;DHT22;6055;52.522;13.446;2022-10-31T05:43:25;13.40;99.90
11991;DHT22;6055;52.522;13.446;2022-10-31T05:45:54;13.40;99.90
11991;DHT22;6055;52.522;13.446;2022-10-31T05:48:19;13.40;99.90
11991;DHT22;6055;52.522;13.446;2022-10-31T05:50:46;13.40;99.90
11991;DHT22;6055;52.522;13.446;2022-10-31T05:53:12;13.40;99.90
11991;DHT22;6055;52.522;13.446;2022-10-31T05:55:37;13.40;99.90
11991;DHT22;6055;52.522;13.446;2022-10-31T05:58:03;13.40;99.90
11991;DHT22;6055;52.522;13.446;2022-10-31T06:00:29;13.30;99.90
11991;DHT22;6055;52.522;13.446;2022-10-31T06:02:59;13.40;99.90
11991;DHT22;6055;52.522;13.446;2022-10-31T06:05:25;13.40;99.90
11991;DHT22;6055;52.522;13.446;2022-10-31T06:07:51;13.40;99.90
11991;DHT22;6055;52.522;13.446;2022-10-31T06:10:17;13.40;99.90
11991;DHT22;6055;52.522;13.446;2022-10-31T06:12:44;13.50;99.90
11991;DHT22;6055;52.522;13.446;2022-10-31T06:15:10;13.40;99.90
11991;DHT22;6055;52.522;13.446;2022-10-31T06:17:36;13.40;99.90
11991;DHT22;6055;52.522;13.446;2022-10-31T06:20:02;13.40;99.90
11991;DHT22;6055;52.522;13.446;2022-10-31T06:22:28;13.40;99.90
11991;DHT22;6055;52.522;13.446;2022-10-31T06:24:53;13.40;99.90
11991;DHT22;6055;52.522;13.446;2022-10-31T06:27:19;13.40;99.90
11991;DHT22;6055;52.522;13.446;2022-10-31T06:29:45;13.40;99.90
11991;DHT22;6055;52.522;13.446;2022-10-31T06:32:12;13.50;99.90
11991;DHT22;6055;52.522;13.446;2022-10-31T06:34:38;13.40;99.90
11991;DHT22;6055;52.522;13.446;2022-10-31T06:37:09;13.40;99.90
11991;DHT22;6055;52.522;13.446;2022-10-31T06:39:35;13.40;99.90
11991;DHT22;6055;52.522;13.446;2022-10-31T06:42:00;13.50;99.90
11991;DHT22;6055;52.522;13.446;2022-10-31T06:44:26;13.50;99.90
11991;DHT22;6055;52.522;13.446;2022-10-31T06:46:51;13.40;99.90
11991;DHT22;6055;52.522;13.446;2022-10-31T06:49:17;13.50;99.90
11991;DHT22;6055;52.522;13.446;2022-10-31T06:51:42;13.50;99.90
11991;DHT22;6055;52.522;13.446;2022-10-31T06:54:08;13.50;99.90
11991;DHT22;6055;52.522;13.446;2022-10-31T06:56:33;13.50;99.90
11991;DHT22;6055;52.522;13.446;2022-10-31T06:58:59;13.50;99.90
11991;DHT22;6055;52.522;13.446;2022-10-31T07:01:25;13.50;99.90
11991;DHT22;6055;52.522;13.446;2022-10-31T07:03:50;13.50;99.90
11991;DHT22;6055;52.522;13.446;2022-10-31T07:06:15;13.50;99.90
11991;DHT22;6055;52.522;13.446;2022-10-31T07:08:41;13.60;99.90
11991;DHT22;6055;52.522;13.446;2022-10-31T07:11:06;13.60;99.90
11991;DHT22;6055;52.522;13.446;2022-10-31T07:13:32;13.60;99.90
11991;DHT22;6055;52.522;13.446;2022-10-31T07:16:02;13.70;99.90
11991;DHT22;6055;52.522;13.446;2022-10-31T07:18:28;13.70;99.90
11991;DHT22;6055;52.522;13.446;2022-10-31T07:20:53;13.80;99.90
11991;DHT22;6055;52.522;13.446;2022-10-31T07:23:19;13.90;99.90
11991;DHT22;6055;52.522;13.446;2022-10-31T07:25:45;13.90;99.90
11991;DHT22;6055;52.522;13.446;2022-10-31T07:28:11;14.00;99.90
11991;DHT22;6055;52.522;13.446;2022-10-31T07:30:37;14.00;99.90
11991;DHT22;6055;52.522;13.446;2022-10-31T07:33:03;14.10;99.90
11991;DHT22;6055;52.522;13.446;2022-10-31T07:35:29;14.30;99.90
11991;DHT22;6055;52.522;13.446;2022-10-31T07:37:55;14.40;99.90
11991;DHT22;6055;52.522;13.446;2022-10-31T07:40:22;14.40;99.90
11991;DHT22;6055;52.522;13.446;2022-10-31T07:42:49;14.60;99.90
11991;DHT22;6055;52.522;13.446;2022-10-31T07:45:17;14.60;99.90
11991;DHT22;6055;52.522;13.446;2022-10-31T07:47:45;14.70;99.90
11991;DHT22;6055;52.522;13.446;2022-10-31T07:50:13;14.70;99.90
11991;DHT22;6055;52.522;13.446;2022-10-31T07:52:39;14.70;99.90
11991;DHT22;6055;52.522;13.446;2022-10-31T07:55:05;14.70;99.90
11991;DHT22;6055;52.522;13.446;2022-10-31T07:57:31;14.70;99.90
11991;DHT22;6055;52.522;13.446;2022-10-31T07:59:57;14.70;99.90
11991;DHT22;6055;52.522;13.446;2022-10-31T08:02:23;14.70;99.90
11991;DHT22;6055;52.522;13.446;2022-10-31T08:04:49;14.70;99.90
11991;DHT22;6055;52.522;13.446;2022-10-31T08:07:14;14.70;99.90
11991;DHT22;6055;52.522;13.446;2022-10-31T08:09:40;14.70;99.90
11991;DHT22;6055;52.522;13.446;2022-10-31T08:12:05;14.70;99.90
11991;DHT22;6055;52.522;13.446;2022-10-31T08:14:31;14.70;99.90
11991;DHT22;6055;52.522;13.446;2022-10-31T08:16:57;14.70;99.90
11991;DHT22;6055;52.522;13.446;2022-10-31T08:19:22;14.60;99.90
11991;DHT22;6055;52.522;13.446;2022-10-31T08:21:51;14.60;99.90
11991;DHT22;6055;52.522;13.446;2022-10-31T08:24:17;14.60;99.90
11991;DHT22;6055;52.522;13.446;2022-10-31T08:26:42;14.70;99.90
11991;DHT22;6055;52.522;13.446;2022-10-31T08:29:08;14.60;99.90
11991;DHT22;6055;52.522;13.446;2022-10-31T08:31:34;14.60;99.90
11991;DHT22;6055;52.522;13.446;2022-10-31T08:33:59;14.60;99.90
11991;DHT22;6055;52.522;13.446;2022-10-31T08:36:25;14.50;99.90
11991;DHT22;6055;52.522;13.446;2022-10-31T08:38:50;14.60;99.90
11991;DHT22;6055;52.522;13.446;2022-10-31T08:41:16;14.50;99.90
11991;DHT22;6055;52.522;13.446;2022-10-31T08:43:41;14.50;99.90
11991;DHT22;6055;52.522;13.446;2022-10-31T08:46:07;14.40;99.90
11991;DHT22;6055;52.522;13.446;2022-10-31T08:48:32;14.40;99.90
11991;DHT22;6055;52.522;13.446;2022-10-31T08:50:59;14.40;99.90
11991;DHT22;6055;52.522;13.446;2022-10-31T08:53:25;14.30;99.90
11991;DHT22;6055;52.522;13.446;2022-10-31T08:55:50;14.30;99.90
11991;DHT22;6055;52.522;13.446;2022-10-31T08:58:19;14.40;99.90
11991;DHT22;6055;52.522;13.446;2022-10-31T09:00:47;14.40;99.90
11991;DHT22;6055;52.522;13.446;2022-10-31T09:03:15;14.40;99.90
11991;DHT22;6055;52.522;13.446;2022-10-31T09:05:41;14.40;99.90
11991;DHT22;6055;52.522;13.446;2022-10-31T09:08:07;14.50;99.90
11991;DHT22;6055;52.522;13.446;2022-10-31T09:10:35;14.50;99.90
11991;DHT22;6055;52.522;13.446;2022-10-31T09:13:06;14.50;99.90
11991;DHT22;6055;52.522;13.446;2022-10-31T09:15:33;14.60;99.90
11991;DHT22;6055;52.522;13.446;2022-10-31T09:17:59;14.60;99.90
11991;DHT22;6055;52.522;13.446;2022-10-31T09:20:26;14.60;99.90
11991;DHT22;6055;52.522;13.446;2022-10-31T09:23:02;14.60;99.90
11991;DHT22;6055;52.522;13.446;2022-10-31T09:25:28;14.60;99.90
11991;DHT22;6055;52.522;13.446;2022-10-31T09:27:58;14.60;99.90
11991;DHT22;6055;52.522;13.446;2022-10-31T09:30:24;14.60;99.90
11991;DHT22;6055;52.522;13.446;2022-10-31T09:33:02;14.70;99.90
11991;DHT22;6055;52.522;13.446;2022-10-31T09:35:28;14.80;99.90
11991;DHT22;6055;52.522;13.446;2022-10-31T09:37:58;14.80;99.90
11991;DHT22;6055;52.522;13.446;2022-10-31T09:40:34;14.80;99.90
11991;DHT22;6055;52.522;13.446;2022-10-31T09:43:13;14.90;99.90
11991;DHT22;6055;52.522;13.446;2022-10-31T09:45:47;14.90;99.90
11991;DHT22;6055;52.522;13.446;2022-10-31T09:48:23;15.00;99.90
11991;DHT22;6055;52.522;13.446;2022-10-31T09:51:00;14.90;99.90
11991;DHT22;6055;52.522;13.446;2022-10-31T09:53:51;14.90;99.90
11991;DHT22;6055;52.522;13.446;2022-10-31T09:56:21;14.90;99.90
11991;DHT22;6055;52.522;13.446;2022-10-31T09:58:54;14.90;99.90
11991;DHT22;6055;52.522;13.446;2022-10-31T10:01:43;15.00;99.90
11991;DHT22;6055;52.522;13.446;2022-10-31T10:04:32;15.00;99.90
11991;DHT22;6055;52.522;13.446;2022-10-31T10:07:02;15.00;99.90
11991;DHT22;6055;52.522;13.446;2022-10-31T10:09:30;15.10;99.90
11991;DHT22;6055;52.522;13.446;2022-10-31T10:12:16;15.10;99.90
11991;DHT22;6055;52.522;13.446;2022-10-31T10:26:38;15.50;99.90
11991;DHT22;6055;52.522;13.446;2022-10-31T10:29:34;15.60;99.90
11991;DHT22;6055;52.522;13.446;2022-10-31T10:32:09;15.60;99.90
11991;DHT22;6055;52.522;13.446;2022-10-31T10:34:41;15.60;99.90
11991;DHT22;6055;52.522;13.446;2022-10-31T10:37:20;15.70;99.90
11991;DHT22;6055;52.522;13.446;2022-10-31T10:39:53;15.80;99.90
11991;DHT22;6055;52.522;13.446;2022-10-31T10:42:20;15.90;99.90
11991;DHT22;6055;52.522;13.446;2022-10-31T10:45:19;16.00;99.90
11991;DHT22;6055;52.522;13.446;2022-10-31T10:48:44;16.10;99.90
11991;DHT22;6055;52.522;13.446;2022-10-31T10:51:03;16.20;99.90
11991;DHT22;6055;52.522;13.446;2022-10-31T10:59:19;16.50;99.90
11991;DHT22;6055;52.522;13.446;2022-10-31T11:01:45;16.60;99.90
11991;DHT22;6055;52.522;13.446;2022-10-31T11:04:33;16.70;99.90
11991;DHT22;6055;52.522;13.446;2022-10-31T11:07:04;16.80;99.90
11991;DHT22;6055;52.522;13.446;2022-10-31T11:09:31;16.90;99.90
11991;DHT22;6055;52.522;13.446;2022-10-31T11:11:58;16.90;99.90
11991;DHT22;6055;52.522;13.446;2022-10-31T11:14:24;17.00;99.90
11991;DHT22;6055;52.522;13.446;2022-10-31T11:19:37;17.00;99.90
11991;DHT22;6055;52.522;13.446;2022-10-31T11:22:17;17.10;99.90
11991;DHT22;6055;52.522;13.446;2022-10-31T11:24:43;17.10;99.90
11991;DHT22;6055;52.522;13.446;2022-10-31T11:27:19;17.20;99.90
11991;DHT22;6055;52.522;13.446;2022-10-31T11:29:45;17.30;99.90
11991;DHT22;6055;52.522;13.446;2022-10-31T11:32:22;17.30;99.90
11991;DHT22;6055;52.522;13.446;2022-10-31T11:34:54;17.30;99.90
11991;DHT22;6055;52.522;13.446;2022-10-31T11:37:22;17.50;99.90
11991;DHT22;6055;52.522;13.446;2022-10-31T11:39:54;17.50;99.90
11991;DHT22;6055;52.522;13.446;2022-10-31T11:42:22;17.60;99.90
11991;DHT22;6055;52.522;13.446;2022-10-31T11:44:49;17.60;99.90
11991;DHT22;6055;52.522;13.446;2022-10-31T11:47:17;17.60;99.90
11991;DHT22;6055;52.522;13.446;2022-10-31T11:49:44;17.70;99.90
11991;DHT22;6055;52.522;13.446;2022-10-31T11:52:17;17.70;99.90
11991;DHT22;6055;52.522;13.446;2022-10-31T11:55:13;17.80;99.90
11991;DHT22;6055;52.522;13.446;2022-10-31T11:57:47;17.80;99.90
11991;DHT22;6055;52.522;13.446;2022-10-31T12:00:26;17.90;99.90
11991;DHT22;6055;52.522;13.446;2022-10-31T12:03:04;17.90;99.90
11991;DHT22;6055;52.522;13.446;2022-10-31T12:05:36;17.90;99.90
11991;DHT22;6055;52.522;13.446;2022-10-31T12:08:03;17.90;99.90
11991;DHT22;6055;52.522;13.446;2022-10-31T12:10:54;18.00;99.90
11991;DHT22;6055;52.522;13.446;2022-10-31T12:16:17;18.20;99.90
11991;DHT22;6055;52.522;13.446;2022-10-31T12:18:56;18.20;99.90
11991;DHT22;6055;52.522;13.446;2022-10-31T12:21:42;18.20;99.90
11991;DHT22;6055;52.522;13.446;2022-10-31T12:24:32;18.40;99.90
11991;DHT22;6055;52.522;13.446;2022-10-31T12:27:17;18.60;99.90
11991;DHT22;6055;52.522;13.446;2022-10-31T12:29:57;18.90;99.90
11991;DHT22;6055;52.522;13.446;2022-10-31T12:35:37;20.10;99.90
11991;DHT22;6055;52.522;13.446;2022-10-31T12:43:34;21.90;99.90
11991;DHT22;6055;52.522;13.446;2022-10-31T12:46:02;22.20;99.90
11991;DHT22;6055;52.522;13.446;2022-10-31T12:49:05;22.60;99.90
11991;DHT22;6055;52.522;13.446;2022-10-31T12:56:57;22.80;99.90
11991;DHT22;6055;52.522;13.446;2022-10-31T12:59:43;23.00;99.90
11991;DHT22;6055;52.522;13.446;2022-10-31T13:02:36;23.10;99.90
11991;DHT22;6055;52.522;13.446;2022-10-31T13:07:44;22.70;99.90
11991;DHT22;6055;52.522;13.446;2022-10-31T13:11:02;22.60;99.90
11991;DHT22;6055;52.522;13.446;2022-10-31T13:13:33;22.30;99.90
11991;DHT22;6055;52.522;13.446;2022-10-31T13:16:07;22.20;99.90
11991;DHT22;6055;52.522;13.446;2022-10-31T13:18:44;21.90;99.90
11991;DHT22;6055;52.522;13.446;2022-10-31T13:21:22;21.80;99.90
11991;DHT22;6055;52.522;13.446;2022-10-31T13:23:50;21.70;99.90
11991;DHT22;6055;52.522;13.446;2022-10-31T13:29:09;21.50;99.90
11991;DHT22;6055;52.522;13.446;2022-10-31T13:31:40;21.50;99.90
11991;DHT22;6055;52.522;13.446;2022-10-31T13:34:25;21.50;99.90
11991;DHT22;6055;52.522;13.446;2022-10-31T13:37:18;21.40;99.90
11991;DHT22;6055;52.522;13.446;2022-10-31T13:42:45;21.00;99.90
11991;DHT22;6055;52.522;13.446;2022-10-31T13:45:20;20.80;99.90
11991;DHT22;6055;52.522;13.446;2022-10-31T13:50:32;20.60;99.90
11991;DHT22;6055;52.522;13.446;2022-10-31T13:53:21;20.60;99.90
11991;DHT22;6055;52.522;13.446;2022-10-31T13:58:34;20.40;99.90
11991;DHT22;6055;52.522;13.446;2022-10-31T14:01:16;20.40;99.90
11991;DHT22;6055;52.522;13.446;2022-10-31T14:03:46;20.30;99.90
11991;DHT22;6055;52.522;13.446;2022-10-31T14:06:12;20.30;99.90
11991;DHT22;6055;52.522;13.446;2022-10-31T14:08:42;20.20;99.90
11991;DHT22;6055;52.522;13.446;2022-10-31T14:11:25;20.20;99.90
11991;DHT22;6055;52.522;13.446;2022-10-31T14:13:54;20.10;99.90
11991;DHT22;6055;52.522;13.446;2022-10-31T14:16:31;20.10;99.90
11991;DHT22;6055;52.522;13.446;2022-10-31T14:19:12;20.00;99.90
11991;DHT22;6055;52.522;13.446;2022-10-31T14:21:41;19.90;99.90
11991;DHT22;6055;52.522;13.446;2022-10-31T14:24:16;19.70;99.90
11991;DHT22;6055;52.522;13.446;2022-10-31T14:27:01;19.50;99.90
11991;DHT22;6055;52.522;13.446;2022-10-31T14:29:29;19.30;99.90
11991;DHT22;6055;52.522;13.446;2022-10-31T14:38:07;18.70;99.90
11991;DHT22;6055;52.522;13.446;2022-10-31T14:41:14;18.50;99.90
11991;DHT22;6055;52.522;13.446;2022-10-31T14:44:13;18.30;99.90
11991;DHT22;6055;52.522;13.446;2022-10-31T14:46:53;18.10;99.90
11991;DHT22;6055;52.522;13.446;2022-10-31T14:49:59;17.90;99.90
11991;DHT22;6055;52.522;13.446;2022-10-31T14:52:29;17.60;99.90
11991;DHT22;6055;52.522;13.446;2022-10-31T14:54:56;17.40;99.90
11991;DHT22;6055;52.522;13.446;2022-10-31T14:57:30;17.30;99.90
11991;DHT22;6055;52.522;13.446;2022-10-31T15:00:17;17.20;99.90
11991;DHT22;6055;52.522;13.446;2022-10-31T15:06:25;16.90;99.90
11991;DHT22;6055;52.522;13.446;2022-10-31T15:08:35;16.80;99.90
11991;DHT22;6055;52.522;13.446;2022-10-31T15:11:09;16.70;99.90
11991;DHT22;6055;52.522;13.446;2022-10-31T15:13:41;16.60;99.90
11991;DHT22;6055;52.522;13.446;2022-10-31T15:16:08;16.50;99.90
11991;DHT22;6055;52.522;13.446;2022-10-31T15:18:34;16.40;99.90
11991;DHT22;6055;52.522;13.446;2022-10-31T15:21:00;16.30;99.90
11991;DHT22;6055;52.522;13.446;2022-10-31T15:23:28;16.30;99.90
11991;DHT22;6055;52.522;13.446;2022-10-31T15:26:04;16.20;99.90
11991;DHT22;6055;52.522;13.446;2022-10-31T15:28:30;16.10;99.90
11991;DHT22;6055;52.522;13.446;2022-10-31T15:30:59;16.10;99.90
11991;DHT22;6055;52.522;13.446;2022-10-31T15:33:39;16.00;99.90
11991;DHT22;6055;52.522;13.446;2022-10-31T15:36:05;16.00;99.90
11991;DHT22;6055;52.522;13.446;2022-10-31T15:38:31;15.90;99.90
11991;DHT22;6055;52.522;13.446;2022-10-31T15:41:03;15.80;99.90
11991;DHT22;6055;52.522;13.446;2022-10-31T15:43:36;15.80;99.90
11991;DHT22;6055;52.522;13.446;2022-10-31T15:46:04;15.70;99.90
11991;DHT22;6055;52.522;13.446;2022-10-31T15:48:32;15.70;99.90
11991;DHT22;6055;52.522;13.446;2022-10-31T15:50:59;15.60;99.90
11991;DHT22;6055;52.522;13.446;2022-10-31T15:53:35;15.60;99.90
11991;DHT22;6055;52.522;13.446;2022-10-31T15:56:06;15.50;99.90
11991;DHT22;6055;52.522;13.446;2022-10-31T15:58:33;15.50;99.90
11991;DHT22;6055;52.522;13.446;2022-10-31T16:01:18;15.50;99.90
11991;DHT22;6055;52.522;13.446;2022-10-31T16:03:44;15.40;99.90
11991;DHT22;6055;52.522;13.446;2022-10-31T16:06:21;15.40;99.90
11991;DHT22;6055;52.522;13.446;2022-10-31T16:08:49;15.40;99.90
11991;DHT22;6055;52.522;13.446;2022-10-31T16:11:32;15.30;99.90
11991;DHT22;6055;52.522;13.446;2022-10-31T16:14:16;15.30;99.90
11991;DHT22;6055;52.522;13.446;2022-10-31T16:16:50;15.30;99.90
11991;DHT22;6055;52.522;13.446;2022-10-31T16:19:25;15.20;99.90
11991;DHT22;6055;52.522;13.446;2022-10-31T16:22:01;15.20;99.90
11991;DHT22;6055;52.522;13.446;2022-10-31T16:24:43;15.20;99.90
11991;DHT22;6055;52.522;13.446;2022-10-31T16:27:21;15.20;99.90
11991;DHT22;6055;52.522;13.446;2022-10-31T16:29:54;15.20;99.90
11991;DHT22;6055;52.522;13.446;2022-10-31T16:32:34;15.10;99.90
11991;DHT22;6055;52.522;13.446;2022-10-31T16:37:37;15.10;99.90
11991;DHT22;6055;52.522;13.446;2022-10-31T16:40:03;15.10;99.90
11991;DHT22;6055;52.522;13.446;2022-10-31T16:42:29;15.10;99.90
11991;DHT22;6055;52.522;13.446;2022-10-31T16:44:54;15.00;99.90
11991;DHT22;6055;52.522;13.446;2022-10-31T16:47:20;15.00;99.90
11991;DHT22;6055;52.522;13.446;2022-10-31T16:49:47;15.00;99.90
11991;DHT22;6055;52.522;13.446;2022-10-31T16:52:14;15.00;99.90
11991;DHT22;6055;52.522;13.446;2022-10-31T16:54:40;14.90;99.90
11991;DHT22;6055;52.522;13.446;2022-10-31T16:57:06;14.90;99.90
11991;DHT22;6055;52.522;13.446;2022-10-31T16:59:36;14.90;99.90
11991;DHT22;6055;52.522;13.446;2022-10-31T17:02:03;14.90;99.90
11991;DHT22;6055;52.522;13.446;2022-10-31T17:04:28;14.80;99.90
11991;DHT22;6055;52.522;13.446;2022-10-31T17:06:54;14.80;99.90
11991;DHT22;6055;52.522;13.446;2022-10-31T17:09:19;14.80;99.90
11991;DHT22;6055;52.522;13.446;2022-10-31T17:11:47;14.70;99.90
11991;DHT22;6055;52.522;13.446;2022-10-31T17:14:14;14.70;99.90
11991;DHT22;6055;52.522;13.446;2022-10-31T17:16:39;14.70;99.90
11991;DHT22;6055;52.522;13.446;2022-10-31T17:19:05;14.60;99.90
11991;DHT22;6055;52.522;13.446;2022-10-31T17:21:30;14.60;99.90
11991;DHT22;6055;52.522;13.446;2022-10-31T17:23:56;14.60;99.90